Time;durP1;ratioP1;P1;durP2;ratioP2;P2;SDS_P1;SDS_P2;PMS_P1;PMS_P2;Temp;Humidity;BMP_temperature;BMP_pressure;BME280_temperature;BME280_humidity;BME280_pressure;Samples;Min_cycle;Max_cycle;Signal;HPM_P1;HPM_P2
2022/01/15 00:00:11;;;;;;;3.00;1.55;;;;;;;23.46;46.31;101805.00;4957442;28;20027;-62
2022/01/15 00:02:36;;;;;;;2.03;1.25;;;;;;;23.48;45.94;101817.28;4952822;28;20046;-62
2022/01/15 00:05:02;;;;;;;2.30;1.33;;;;;;;23.50;45.95;101819.78;4953468;28;20478;-63
2022/01/15 00:07:27;;;;;;;3.38;1.45;;;;;;;23.52;46.00;101815.13;4953942;28;20026;-61
2022/01/15 00:09:53;;;;;;;4.18;1.40;;;;;;;23.52;45.92;101817.81;4972629;28;20034;-61
2022/01/15 00:12:18;;;;;;;3.38;1.70;;;;;;;23.50;45.93;101806.38;4953949;28;20506;-60
2022/01/15 00:14:44;;;;;;;3.15;1.50;;;;;;;23.50;46.08;101817.09;4953441;28;20023;-60
2022/01/15 00:17:20;;;;;;;3.85;1.60;;;;;;;23.47;46.26;101814.75;4954621;28;20073;-60
2022/01/15 00:19:46;;;;;;;2.67;1.67;;;;;;;23.47;46.04;101828.16;4958235;28;20035;-61
2022/01/15 00:22:19;;;;;;;2.63;1.38;;;;;;;23.47;45.73;101822.78;4953714;28;20031;-62
2022/01/15 00:24:46;;;;;;;4.82;1.45;;;;;;;23.46;45.84;101826.44;4956161;28;20524;-62
2022/01/15 00:27:12;;;;;;;1.83;1.27;;;;;;;23.43;45.97;101832.13;4957635;28;20490;-62
2022/01/15 00:29:38;;;;;;;2.83;1.60;;;;;;;23.41;46.09;101842.16;4972723;28;20504;-62
2022/01/15 00:32:06;;;;;;;5.97;1.70;;;;;;;23.39;45.65;101841.47;4967640;28;20035;-59
2022/01/15 00:34:32;;;;;;;48.65;4.07;;;;;;;23.13;44.86;101839.56;4957149;28;20054;-59
2022/01/15 00:36:58;;;;;;;3.85;2.10;;;;;;;22.85;44.52;101831.53;4955844;28;20473;-59
2022/01/15 00:39:24;;;;;;;4.10;2.05;;;;;;;22.84;44.55;101834.34;4973598;28;20110;-60
2022/01/15 00:41:50;;;;;;;2.88;1.75;;;;;;;22.74;44.43;101827.19;4957482;28;20054;-60
2022/01/15 00:44:16;;;;;;;5.93;2.40;;;;;;;22.69;44.57;101828.63;4960280;28;20031;-59
2022/01/15 00:46:42;;;;;;;4.68;2.67;;;;;;;22.63;44.69;101823.88;4965901;28;20030;-59
2022/01/15 00:49:08;;;;;;;2.75;2.10;;;;;;;22.56;44.83;101823.66;4966195;28;20023;-60
2022/01/15 00:51:34;;;;;;;3.58;1.90;;;;;;;22.53;44.88;101819.44;4966848;28;20035;-59
2022/01/15 00:53:59;;;;;;;3.45;2.03;;;;;;;22.32;45.21;101824.19;4956512;29;20054;-59
2022/01/15 00:56:25;;;;;;;3.33;2.10;;;;;;;22.24;45.37;101819.56;4954354;28;20043;-59
2022/01/15 00:58:52;;;;;;;4.85;2.83;;;;;;;22.20;45.50;101823.47;4952320;28;20027;-60
2022/01/15 01:01:17;;;;;;;3.83;2.45;;;;;;;22.15;45.47;101823.91;4973896;28;20027;-59
2022/01/15 01:03:43;;;;;;;3.92;2.40;;;;;;;22.19;45.38;101821.78;4970487;28;20045;-60
2022/01/15 01:06:08;;;;;;;4.32;1.98;;;;;;;22.23;45.34;101815.16;4975279;28;20031;-60
2022/01/15 01:08:33;;;;;;;3.17;2.00;;;;;;;22.27;45.22;101813.06;4968047;28;20011;-60
2022/01/15 01:11:02;;;;;;;5.07;3.03;;;;;;;22.27;45.21;101813.06;4957699;28;20524;-60
2022/01/15 01:24:09;;;;;;;3.13;1.95;;;;;;;22.09;45.38;101786.22;4957149;28;20098;-59
2022/01/15 01:27:22;;;;;;;3.55;2.38;;;;;;;22.08;45.37;101798.75;4957955;28;20035;-60
2022/01/15 01:34:30;;;;;;;2.45;1.88;;;;;;;22.03;45.50;101776.94;4973534;28;20035;-60
2022/01/15 01:39:32;;;;;;;3.95;2.00;;;;;;;22.14;45.35;101768.72;4954372;28;20094;-59
2022/01/15 01:42:40;;;;;;;3.03;2.03;;;;;;;22.15;45.33;101759.69;4970001;28;20040;-59
2022/01/15 01:45:06;;;;;;;3.45;2.50;;;;;;;22.17;45.11;101759.56;4962090;28;20051;-59
2022/01/15 01:47:39;;;;;;;2.55;1.75;;;;;;;22.18;45.38;101756.75;4959080;28;20034;-59
2022/01/15 01:50:08;;;;;;;4.10;2.17;;;;;;;22.20;45.33;101758.44;4965579;28;20030;-59
2022/01/15 01:52:33;;;;;;;2.22;1.90;;;;;;;22.20;45.20;101758.44;4967583;28;20102;-59
2022/01/15 01:54:58;;;;;;;3.33;1.80;;;;;;;22.20;45.14;101753.09;4966932;28;20025;-59
2022/01/15 01:57:24;;;;;;;5.72;2.40;;;;;;;22.17;45.28;101760.41;4961510;28;20031;-60
2022/01/15 01:59:49;;;;;;;4.00;2.10;;;;;;;22.16;45.15;101757.91;4954577;28;20018;-59
2022/01/15 02:02:15;;;;;;;5.05;2.00;;;;;;;22.16;45.31;101753.38;4960669;28;20031;-59
2022/01/15 02:04:40;;;;;;;2.83;2.00;;;;;;;22.15;45.00;101750.84;4949207;28;20031;-59
2022/01/15 02:07:06;;;;;;;5.72;2.60;;;;;;;22.15;44.98;101745.50;4947852;28;20031;-59
2022/01/15 02:09:32;;;;;;;4.55;2.08;;;;;;;22.12;45.18;101738.63;4947310;28;20037;-59
2022/01/15 02:11:57;;;;;;;4.18;2.00;;;;;;;22.12;44.96;101735.94;4968581;28;20097;-59
2022/01/15 02:14:30;;;;;;;3.40;1.90;;;;;;;22.10;45.12;101737.09;4972882;28;20101;-59
2022/01/15 02:16:56;;;;;;;4.03;2.10;;;;;;;22.06;44.92;101731.19;4971518;28;20030;-59
2022/01/15 02:19:24;;;;;;;2.65;1.73;;;;;;;22.05;44.91;101724.13;4961341;28;20047;-58
2022/01/15 02:24:15;;;;;;;4.03;2.15;;;;;;;22.01;45.14;101717.41;4955683;28;20031;-59
2022/01/15 02:26:40;;;;;;;2.65;1.80;;;;;;;22.00;45.06;101718.41;4969675;28;20122;-59
2022/01/15 02:29:07;;;;;;;4.88;2.20;;;;;;;22.00;45.31;101718.41;4964689;28;20058;-59
2022/01/15 02:31:33;;;;;;;5.55;2.45;;;;;;;22.00;45.26;101718.41;4954319;28;20027;-59
2022/01/15 02:34:01;;;;;;;2.97;2.20;;;;;;;22.01;45.17;101706.69;4954475;28;20114;-59
2022/01/15 02:36:30;;;;;;;4.05;2.00;;;;;;;22.02;45.12;101713.75;4955679;28;20031;-59
2022/01/15 02:38:56;;;;;;;4.47;2.20;;;;;;;22.04;44.76;101706.41;4954724;29;20422;-59
2022/01/15 02:41:24;;;;;;;2.63;1.90;;;;;;;22.05;45.16;101705.41;4959973;28;20405;-59
2022/01/15 02:43:50;;;;;;;3.72;2.40;;;;;;;22.04;45.02;101701.06;4960957;28;20027;-59
2022/01/15 02:46:19;;;;;;;5.47;2.53;;;;;;;22.04;45.11;101702.88;4958217;28;20491;-59
2022/01/15 02:48:53;;;;;;;3.42;2.10;;;;;;;22.04;45.23;101701.06;4957534;28;20059;-59
2022/01/15 02:51:25;;;;;;;4.18;2.30;;;;;;;22.04;44.98;101693.03;4954968;28;20036;-59
2022/01/15 02:53:55;;;;;;;3.08;1.98;;;;;;;22.03;45.09;101690.50;4956633;28;20033;-59
2022/01/15 02:56:25;;;;;;;3.95;2.45;;;;;;;22.01;45.06;101679.97;4954892;28;20035;-59
2022/01/15 02:58:51;;;;;;;3.63;2.15;;;;;;;21.99;44.92;101681.94;4962233;28;20027;-59
2022/01/15 03:01:16;;;;;;;3.10;1.92;;;;;;;21.98;44.99;101685.63;4970860;28;20037;-59
2022/01/15 03:03:42;;;;;;;3.95;2.92;;;;;;;21.96;44.96;101683.09;4964573;28;20050;-59
2022/01/15 03:06:12;;;;;;;3.95;2.35;;;;;;;21.95;44.84;101684.06;4955980;28;20381;-59
2022/01/15 03:08:42;;;;;;;3.25;1.95;;;;;;;21.93;44.97;101678.03;4971433;28;20499;-59
2022/01/15 03:11:08;;;;;;;3.63;2.45;;;;;;;21.92;45.17;101670.13;4953893;28;20438;-59
2022/01/15 03:13:36;;;;;;;3.20;2.08;;;;;;;21.89;45.19;101663.25;4956375;28;20022;-59
2022/01/15 03:16:01;;;;;;;3.65;2.58;;;;;;;21.83;45.34;101661.19;4957783;28;20394;-59
2022/01/15 03:18:27;;;;;;;4.97;2.70;;;;;;;21.77;45.39;101657.25;4963621;28;20201;-59
2022/01/15 03:20:52;;;;;;;2.65;1.88;;;;;;;21.81;45.31;101659.66;4959209;28;20035;-59
2022/01/15 03:23:18;;;;;;;3.50;2.35;;;;;;;21.82;45.25;101658.66;4953958;28;20035;-59
2022/01/15 03:25:43;;;;;;;3.20;2.20;;;;;;;21.83;45.56;101660.34;4963219;28;20077;-59
2022/01/15 03:28:09;;;;;;;4.47;2.50;;;;;;;21.83;45.39;101649.66;4954903;28;20035;-59
2022/01/15 03:30:34;;;;;;;4.03;2.20;;;;;;;21.86;45.34;101650.22;4958776;28;20399;-59
2022/01/15 03:32:59;;;;;;;5.05;3.00;;;;;;;21.86;45.43;101650.22;4955341;28;20470;-59
2022/01/15 03:35:25;;;;;;;4.15;2.70;;;;;;;21.88;45.39;101658.94;4953465;28;20027;-59
2022/01/15 03:37:50;;;;;;;3.40;2.10;;;;;;;21.96;45.19;101652.84;4965983;28;20385;-59
2022/01/15 03:40:16;;;;;;;3.13;2.15;;;;;;;21.95;45.07;101654.66;4960568;28;20114;-59
2022/01/15 03:42:43;;;;;;;2.70;2.17;;;;;;;21.93;45.29;101647.78;4954711;28;20035;-59
2022/01/15 03:45:09;;;;;;;2.42;1.75;;;;;;;21.93;45.22;101643.25;4956182;28;20054;-59
2022/01/15 03:47:35;;;;;;;3.42;2.10;;;;;;;21.92;45.33;101640.72;4965032;28;20085;-59
2022/01/15 03:50:00;;;;;;;3.50;2.05;;;;;;;21.88;45.32;101632.19;4964076;28;20031;-59
2022/01/15 03:52:26;;;;;;;3.65;2.17;;;;;;;21.94;45.09;101625.41;4955962;28;20022;-59
2022/01/15 03:54:51;;;;;;;3.20;2.08;;;;;;;21.92;44.88;101628.22;4972997;28;20023;-59
2022/01/15 03:57:17;;;;;;;3.80;2.40;;;;;;;21.91;45.02;101615.00;4964863;28;20031;-59
2022/01/15 03:59:42;;;;;;;5.03;2.75;;;;;;;21.83;45.03;101609.56;4951906;28;20505;-60
2022/01/15 04:02:08;;;;;;;3.60;2.30;;;;;;;21.88;45.08;101612.59;4958650;28;20035;-60
2022/01/15 04:04:34;;;;;;;4.25;2.80;;;;;;;21.85;45.07;101599.56;4947301;28;20027;-60
2022/01/15 04:06:59;;;;;;;3.97;2.45;;;;;;;21.85;45.02;101602.22;4973143;28;20056;-59
2022/01/15 04:09:25;;;;;;;2.83;1.85;;;;;;;21.86;44.88;101596.72;4960653;28;20035;-59
2022/01/15 04:11:50;;;;;;;3.90;2.28;;;;;;;21.81;45.09;101590.16;4953266;28;20501;-60
2022/01/15 04:14:15;;;;;;;3.85;2.65;;;;;;;21.87;45.02;101579.69;4963974;28;20057;-59
2022/01/15 04:16:41;;;;;;;3.47;2.00;;;;;;;21.90;45.00;101582.06;4957335;28;20030;-59
2022/01/15 04:19:07;;;;;;;5.25;2.13;;;;;;;21.94;44.90;101578.09;4953513;28;20035;-59
2022/01/15 04:21:34;;;;;;;3.70;2.45;;;;;;;21.89;45.08;101574.19;4959002;28;20035;-59
2022/01/15 04:24:00;;;;;;;3.85;2.58;;;;;;;21.75;45.28;101572.88;4953233;29;20059;-59
2022/01/15 04:26:27;;;;;;;5.65;2.50;;;;;;;21.82;45.40;101579.31;4964620;28;20406;-60
2022/01/15 04:28:54;;;;;;;3.85;2.13;;;;;;;21.85;45.34;101570.13;4967920;28;20026;-59
2022/01/15 04:31:20;;;;;;;3.13;2.08;;;;;;;21.84;45.17;101561.28;4952912;28;20041;-59
2022/01/15 04:33:46;;;;;;;3.33;2.33;;;;;;;21.85;45.13;101562.13;4953405;28;20032;-59
2022/01/15 04:36:12;;;;;;;4.07;2.28;;;;;;;21.84;45.35;101560.41;4961135;28;20031;-59
2022/01/15 04:38:38;;;;;;;4.88;2.65;;;;;;;21.77;45.26;101555.69;4959143;28;20041;-60
2022/01/15 04:41:08;;;;;;;3.63;2.17;;;;;;;21.75;45.25;101563.00;4968846;28;20031;-60
2022/01/15 04:43:34;;;;;;;2.97;2.03;;;;;;;21.72;45.46;101563.31;4967492;28;20037;-60
2022/01/15 04:46:00;;;;;;;2.80;2.00;;;;;;;21.71;45.40;101553.59;4969204;28;20039;-59
2022/01/15 04:48:26;;;;;;;2.97;1.98;;;;;;;21.72;45.23;101551.75;4961253;28;20486;-60
2022/01/15 04:50:51;;;;;;;5.90;2.80;;;;;;;21.72;45.35;101547.28;4950592;28;20059;-60
2022/01/15 04:53:17;;;;;;;2.63;2.20;;;;;;;21.59;45.38;101562.81;4952658;28;20070;-59
2022/01/15 04:55:42;;;;;;;3.17;1.90;;;;;;;21.69;45.25;101554.75;4950663;28;20035;-59
2022/01/15 04:58:08;;;;;;;2.75;2.10;;;;;;;21.67;45.48;101551.38;4969034;28;20389;-59
2022/01/15 05:00:35;;;;;;;3.70;2.30;;;;;;;21.65;45.43;101545.34;4959710;28;20386;-59
2022/01/15 05:03:01;;;;;;;2.78;1.90;;;;;;;21.71;45.38;101539.41;4965942;28;20042;-59
2022/01/15 05:05:28;;;;;;;3.15;2.15;;;;;;;21.75;45.18;101536.28;4961838;28;20046;-59
2022/01/15 05:07:54;;;;;;;3.83;2.25;;;;;;;21.78;45.19;101538.66;4965341;28;20073;-59
2022/01/15 05:10:24;;;;;;;5.25;2.35;;;;;;;21.79;45.08;101543.00;4953110;28;20031;-59
2022/01/15 05:12:50;;;;;;;3.25;2.13;;;;;;;21.78;45.10;101541.34;4956702;28;20372;-59
2022/01/15 05:15:18;;;;;;;3.67;2.30;;;;;;;21.82;45.11;101530.31;4958277;28;20066;-59
2022/01/15 05:17:44;;;;;;;3.42;2.17;;;;;;;21.81;45.08;101523.31;4971412;28;20089;-60
2022/01/15 05:20:11;;;;;;;3.92;2.35;;;;;;;21.75;45.18;101522.91;4965946;28;20054;-60
2022/01/15 05:22:36;;;;;;;2.72;2.05;;;;;;;21.78;45.17;101519.09;4960348;28;20035;-59
2022/01/15 05:25:04;;;;;;;2.67;2.00;;;;;;;21.81;45.24;101512.63;4957260;28;20091;-59
2022/01/15 05:27:29;;;;;;;3.13;1.95;;;;;;;21.82;44.93;101514.28;4955707;28;20061;-59
2022/01/15 05:29:55;;;;;;;3.17;1.85;;;;;;;21.80;45.16;101511.78;4960513;28;20102;-59
2022/01/15 05:32:23;;;;;;;3.67;2.05;;;;;;;21.74;45.09;101515.03;4966208;28;20026;-59
2022/01/15 05:34:49;;;;;;;4.60;2.60;;;;;;;21.71;45.26;101516.19;4957517;28;20110;-59
2022/01/15 05:37:15;;;;;;;3.28;2.20;;;;;;;21.70;45.28;101510.97;4963231;28;20081;-59
2022/01/15 05:39:41;;;;;;;2.80;2.20;;;;;;;21.68;45.19;101508.47;4955706;28;20058;-60
2022/01/15 05:42:07;;;;;;;3.35;2.00;;;;;;;21.66;45.14;101505.09;4965920;28;20030;-60
2022/01/15 05:44:33;;;;;;;3.22;2.20;;;;;;;21.56;45.26;101504.31;4957403;28;20087;-60
2022/01/15 05:46:59;;;;;;;2.67;1.90;;;;;;;21.60;45.27;101500.34;4967341;28;20058;-60
2022/01/15 05:49:24;;;;;;;2.92;1.73;;;;;;;21.67;45.17;101506.78;4964064;28;20489;-59
2022/01/15 05:51:50;;;;;;;3.17;1.83;;;;;;;21.68;45.11;101503.13;4955863;28;20024;-59
2022/01/15 05:54:15;;;;;;;4.13;2.15;;;;;;;21.72;45.01;101509.00;4964991;28;20477;-59
2022/01/15 05:56:41;;;;;;;5.72;2.20;;;;;;;21.62;44.94;101501.03;4961190;28;20292;-60
2022/01/15 05:59:07;;;;;;;3.00;1.85;;;;;;;21.56;45.22;101512.34;4958223;28;20493;-59
2022/01/15 06:01:33;;;;;;;3.15;1.92;;;;;;;21.64;45.23;101507.06;4958267;28;20049;-60
2022/01/15 06:03:58;;;;;;;2.63;1.58;;;;;;;21.57;45.34;101495.31;4949502;28;20032;-59
2022/01/15 06:06:24;;;;;;;4.70;2.30;;;;;;;21.60;45.35;101497.69;4951623;28;20025;-60
2022/01/15 06:08:49;;;;;;;2.45;1.83;;;;;;;21.65;45.19;101506.09;4950452;28;20064;-59
2022/01/15 06:11:17;;;;;;;3.67;2.20;;;;;;;21.64;45.33;101498.22;4958223;28;20031;-59
2022/01/15 06:13:47;;;;;;;3.67;1.92;;;;;;;21.62;45.15;101493.03;4971690;28;20035;-59
2022/01/15 06:16:13;;;;;;;3.03;1.98;;;;;;;21.51;45.56;101487.91;4959485;28;20035;-60
2022/01/15 06:18:39;;;;;;;2.40;1.73;;;;;;;21.49;45.48;101489.88;4965184;28;20078;-59
2022/01/15 06:21:04;;;;;;;3.58;1.95;;;;;;;21.69;45.03;101499.47;4969778;28;20026;-59
2022/01/15 06:23:30;;;;;;;4.00;2.00;;;;;;;21.67;45.09;101506.78;4967430;28;20035;-59
2022/01/15 06:25:55;;;;;;;4.20;2.20;;;;;;;21.51;45.33;101507.44;4963548;28;20031;-59
2022/01/15 06:28:21;;;;;;;3.45;2.30;;;;;;;21.47;45.47;101499.88;4954183;28;20122;-59
2022/01/15 06:30:47;;;;;;;4.95;2.03;;;;;;;21.44;45.47;101500.16;4962270;28;20027;-60
2022/01/15 06:33:13;;;;;;;3.25;1.90;;;;;;;21.42;45.59;101502.94;4954918;28;20094;-59
2022/01/15 06:35:39;;;;;;;3.42;2.10;;;;;;;21.39;45.49;101504.09;4966236;28;20027;-60
2022/01/15 06:38:04;;;;;;;3.83;2.10;;;;;;;21.39;45.39;101508.59;4974612;28;20038;-59
2022/01/15 06:40:31;;;;;;;3.55;2.67;;;;;;;21.36;45.38;101507.06;4973033;28;20053;-59
2022/01/15 06:42:57;;;;;;;3.55;2.17;;;;;;;21.38;45.48;101502.41;4970361;28;20511;-59
2022/01/15 06:45:22;;;;;;;3.83;2.42;;;;;;;21.33;45.47;101515.38;4969062;28;20031;-59
2022/01/15 06:47:48;;;;;;;3.42;2.40;;;;;;;21.23;45.94;101513.72;4972821;28;20413;-59
2022/01/15 06:50:13;;;;;;;3.90;1.95;;;;;;;21.22;45.83;101510.22;4954930;28;20166;-59
2022/01/15 06:52:39;;;;;;;3.05;1.83;;;;;;;21.22;46.01;101510.22;4967240;28;20029;-60
2022/01/15 06:55:07;;;;;;;5.32;1.70;;;;;;;21.24;45.81;101505.56;4956475;28;20379;-59
2022/01/15 06:57:32;;;;;;;2.78;2.10;;;;;;;21.31;45.73;101509.34;4968452;28;20035;-60
2022/01/15 06:59:58;;;;;;;3.35;2.10;;;;;;;21.42;45.44;101518.16;4968084;28;20031;-60
2022/01/15 07:02:23;;;;;;;3.25;1.95;;;;;;;21.45;45.56;101509.88;4954816;28;20035;-59
2022/01/15 07:04:48;;;;;;;3.60;2.30;;;;;;;21.50;45.38;101521.78;4953048;28;20031;-59
2022/01/15 07:07:14;;;;;;;3.75;2.00;;;;;;;21.49;45.44;101517.44;4970740;28;20157;-59
2022/01/15 07:09:39;;;;;;;3.47;1.95;;;;;;;21.47;45.48;101513.25;4973480;28;20027;-59
2022/01/15 07:12:05;;;;;;;2.97;1.80;;;;;;;21.49;45.42;101513.94;4961119;28;20058;-59
2022/01/15 07:14:31;;;;;;;2.60;1.92;;;;;;;21.46;45.44;101508.88;4957028;28;20393;-59
2022/01/15 07:16:57;;;;;;;3.60;2.28;;;;;;;21.29;45.61;101508.66;4973637;28;20033;-59
2022/01/15 07:19:22;;;;;;;2.88;1.90;;;;;;;21.20;45.92;101514.88;4959276;28;20085;-60
2022/01/15 07:21:47;;;;;;;3.28;2.10;;;;;;;21.28;45.64;101509.63;4973716;28;20476;-60
2022/01/15 07:24:13;;;;;;;2.35;1.75;;;;;;;21.35;45.47;101505.38;4970527;28;20458;-59
2022/01/15 07:26:40;;;;;;;3.75;2.85;;;;;;;21.36;45.24;101503.53;4970638;28;20022;-59
2022/01/15 07:29:13;;;;;;;3.78;2.10;;;;;;;21.33;45.47;101499.34;4963010;28;20027;-59
2022/01/15 07:31:38;;;;;;;3.45;2.78;;;;;;;21.32;45.44;101499.50;4967026;28;20059;-60
2022/01/15 07:34:03;;;;;;;3.05;1.92;;;;;;;21.27;45.58;101496.41;4962137;28;20074;-59
2022/01/15 07:36:29;;;;;;;2.88;2.33;;;;;;;21.32;45.45;101500.31;4964726;28;20485;-59
2022/01/15 07:38:54;;;;;;;4.25;2.35;;;;;;;21.32;45.49;101502.16;4952927;28;20062;-59
2022/01/15 07:41:21;;;;;;;4.78;2.30;;;;;;;21.36;45.42;101504.38;4967944;28;20027;-59
2022/01/15 07:43:47;;;;;;;3.47;2.20;;;;;;;21.39;45.33;101504.09;4968738;28;20050;-59
2022/01/15 07:46:12;;;;;;;5.80;2.47;;;;;;;21.47;45.33;101505.22;4969864;28;20026;-61
2022/01/15 07:48:38;;;;;;;2.70;2.13;;;;;;;21.49;45.42;101501.41;4958624;28;20066;-61
2022/01/15 07:51:03;;;;;;;4.15;2.45;;;;;;;21.55;45.40;101495.47;4957007;28;20078;-59
2022/01/15 07:53:29;;;;;;;3.55;1.83;;;;;;;21.66;45.33;101494.41;4953539;28;20035;-60
2022/01/15 07:55:54;;;;;;;6.47;2.22;;;;;;;21.74;45.28;101497.19;4958132;28;20062;-60
2022/01/15 07:58:20;;;;;;;2.50;1.80;;;;;;;21.79;45.23;101500.22;4953752;28;20097;-62
2022/01/15 08:00:45;;;;;;;2.72;2.15;;;;;;;21.75;45.45;101495.34;4949695;28;20031;-61
2022/01/15 08:03:11;;;;;;;2.95;1.95;;;;;;;21.65;45.75;101495.41;4947038;28;20023;-64
2022/01/15 08:05:36;;;;;;;3.03;2.10;;;;;;;21.88;45.46;101497.63;4945759;28;20474;-61
2022/01/15 08:08:02;;;;;;;2.25;1.60;;;;;;;21.85;45.65;101495.28;4946053;28;20040;-59
2022/01/15 08:10:27;;;;;;;4.15;2.20;;;;;;;21.94;45.43;101489.03;4970768;28;20038;-59
2022/01/15 08:12:53;;;;;;;3.47;1.85;;;;;;;21.90;45.45;101479.59;4957345;28;20066;-59
2022/01/15 08:15:20;;;;;;;3.30;1.88;;;;;;;21.86;45.39;101486.25;4966120;28;20469;-59
2022/01/15 08:17:45;;;;;;;3.10;2.22;;;;;;;21.92;45.41;101489.19;4962883;28;20039;-60
2022/01/15 08:20:12;;;;;;;3.42;2.38;;;;;;;21.89;45.48;101478.78;4963448;28;20038;-60
2022/01/15 08:22:40;;;;;;;3.90;2.25;;;;;;;21.86;45.41;101484.44;4961778;28;20069;-59
2022/01/15 08:25:06;;;;;;;11.20;2.53;;;;;;;21.79;45.74;101480.69;4959078;28;20400;-58
2022/01/15 08:27:31;;;;;;;5.15;1.90;;;;;;;21.63;46.05;101484.03;4953151;28;20115;-60
2022/01/15 08:29:56;;;;;;;8.82;2.25;;;;;;;21.69;46.25;101474.56;4952656;28;20260;-61
2022/01/15 08:32:22;;;;;;;14.82;3.10;;;;;;;21.83;46.39;101478.56;4959600;28;20031;-61
2022/01/15 08:34:47;;;;;;;5.03;1.90;;;;;;;21.95;46.58;101478.16;4964555;28;20035;-60
2022/01/15 08:37:13;;;;;;;6.15;2.08;;;;;;;22.15;45.98;101486.88;4962890;28;20478;-60
2022/01/15 08:39:39;;;;;;;14.82;2.20;;;;;;;22.18;45.91;101478.53;4961877;28;20069;-62
2022/01/15 08:42:06;;;;;;;3.78;2.10;;;;;;;22.22;46.01;101483.59;4953837;28;20127;-61
2022/01/15 08:44:32;;;;;;;4.72;2.33;;;;;;;22.27;46.06;101484.00;4968900;28;20027;-62
2022/01/15 08:46:58;;;;;;;5.28;2.00;;;;;;;22.35;45.78;101481.38;4959056;28;20050;-60
2022/01/15 08:49:23;;;;;;;12.45;2.42;;;;;;;22.29;46.17;101479.31;4964059;28;20033;-63
2022/01/15 08:51:48;;;;;;;5.55;3.15;;;;;;;22.34;46.21;101482.38;4953996;28;20077;-62
2022/01/15 08:54:14;;;;;;;7.72;2.55;;;;;;;22.42;46.18;101481.63;4965203;28;20022;-63
2022/01/15 08:56:39;;;;;;;14.25;2.15;;;;;;;22.57;45.78;101480.91;4972169;28;20106;-62
2022/01/15 08:59:05;;;;;;;9.43;2.05;;;;;;;22.65;45.65;101484.59;4957750;28;20541;-60
2022/01/15 09:01:31;;;;;;;5.70;2.17;;;;;;;22.73;45.68;101492.72;4960548;28;20544;-64
2022/01/15 09:03:57;;;;;;;4.50;1.77;;;;;;;22.86;45.13;101486.91;4962495;28;20469;-62
2022/01/15 09:06:23;;;;;;;3.65;1.98;;;;;;;23.12;44.78;101484.22;4956546;28;20039;-61
2022/01/15 09:08:49;;;;;;;3.20;2.17;;;;;;;23.19;44.38;101479.91;4967447;28;20093;-65
2022/01/15 09:11:14;;;;;;;4.22;2.20;;;;;;;23.27;44.24;101482.63;4970235;28;20035;-63
2022/01/15 09:13:41;;;;;;;7.88;3.00;;;;;;;23.28;44.13;101487.00;4967787;28;20500;-65
2022/01/15 09:16:06;;;;;;;6.10;2.47;;;;;;;23.06;45.05;101476.84;4957335;28;20023;-62
2022/01/15 09:18:31;;;;;;;16.25;2.70;;;;;;;23.34;43.94;101485.50;4953732;28;20036;-68
2022/01/15 09:20:57;;;;;;;6.90;2.45;;;;;;;23.28;43.64;101476.28;4964417;28;20130;-64
2022/01/15 09:23:22;;;;;;;3.50;2.35;;;;;;;23.30;43.94;101479.66;4973828;28;20465;-67
2022/01/15 09:25:49;;;;;;;6.43;2.30;;;;;;;23.27;43.94;101479.13;4961504;28;20463;-64
2022/01/15 09:30:59;;;;;;;5.20;2.25;;;;;;;23.35;43.91;101482.66;4954190;28;20539;-66
2022/01/15 09:33:24;;;;;;;7.03;1.90;;;;;;;23.42;43.70;101484.69;4967689;28;20022;-61
2022/01/15 09:35:50;;;;;;;5.82;2.10;;;;;;;23.25;43.97;101476.59;4964365;28;20448;-62
2022/01/15 09:38:15;;;;;;;12.77;2.53;;;;;;;23.36;44.03;101484.34;4965172;28;20039;-66
2022/01/15 09:40:41;;;;;;;3.05;2.08;;;;;;;23.48;43.61;101476.00;4965690;28;20038;-73
2022/01/15 09:43:08;;;;;;;4.82;2.40;;;;;;;23.56;43.69;101481.41;4972319;28;20097;-70
2022/01/15 09:45:35;;;;;;;6.32;2.60;;;;;;;23.46;43.41;101483.34;4960357;28;20022;-64
2022/01/15 09:48:03;;;;;;;3.80;1.95;;;;;;;23.52;43.16;101485.41;4963367;28;20031;-68
2022/01/15 09:50:31;;;;;;;5.03;2.17;;;;;;;23.39;43.62;101493.06;4959785;28;21505;-66
2022/01/15 09:52:58;;;;;;;4.80;2.40;;;;;;;23.12;44.08;101481.56;4971101;28;20107;-66
2022/01/15 09:55:24;;;;;;;4.63;1.92;;;;;;;23.35;43.52;101482.66;4969934;28;20084;-64
2022/01/15 09:57:51;;;;;;;4.43;2.08;;;;;;;23.22;43.68;101468.88;4968484;28;20034;-65
2022/01/15 10:00:18;;;;;;;7.32;2.20;;;;;;;23.11;43.95;101474.53;4949996;28;20127;-67
2022/01/15 10:02:46;;;;;;;7.72;2.30;;;;;;;23.19;44.23;101471.88;4954186;28;20020;-66
2022/01/15 10:05:12;;;;;;;6.07;2.40;;;;;;;23.09;43.82;101471.19;4961050;28;20033;-65
2022/01/15 10:07:52;;;;;;;5.18;2.33;;;;;;;23.07;44.03;101473.19;4953303;28;20035;-74
2022/01/15 10:10:20;;;;;;;2.95;2.30;;;;;;;22.97;44.04;101467.91;4961911;28;20117;-61
2022/01/15 10:12:46;;;;;;;4.88;2.22;;;;;;;22.97;44.16;101470.59;4963600;28;20031;-62
2022/01/15 10:15:14;;;;;;;14.85;2.55;;;;;;;22.93;44.18;101475.41;4969899;28;20458;-56
2022/01/15 10:17:40;;;;;;;3.42;2.35;;;;;;;23.03;44.13;101471.81;4956151;28;20042;-54
2022/01/15 10:20:14;;;;;;;4.40;2.10;;;;;;;22.86;44.03;101470.84;4955983;28;20055;-60
2022/01/15 10:22:48;;;;;;;5.38;2.55;;;;;;;22.68;44.62;101468.25;4953348;28;20505;-60
2022/01/15 10:25:21;;;;;;;5.22;2.30;;;;;;;22.55;44.87;101472.19;4953766;29;20506;-59
2022/01/15 10:27:51;;;;;;;5.28;2.70;;;;;;;22.53;44.98;101471.50;4953315;28;20038;-58
2022/01/15 10:30:27;;;;;;;5.55;2.55;;;;;;;22.51;45.37;101469.94;4953880;28;20047;-59
2022/01/15 10:32:58;;;;;;;3.38;2.30;;;;;;;22.53;45.10;101471.50;4952066;28;20031;-59
2022/01/15 10:35:25;;;;;;;3.10;2.20;;;;;;;22.56;45.16;101476.53;4957072;28;20502;-59
2022/01/15 10:37:52;;;;;;;5.70;2.60;;;;;;;22.63;45.24;101465.19;4953739;28;20054;-59
2022/01/15 10:40:20;;;;;;;3.80;2.55;;;;;;;22.61;45.06;101467.19;4953090;28;20105;-59
2022/01/15 10:42:57;;;;;;;8.45;2.95;;;;;;;22.66;45.32;101471.06;4958075;28;21261;-58
2022/01/15 10:45:25;;;;;;;5.72;2.60;;;;;;;22.71;45.54;101470.59;4954691;28;20034;-59
2022/01/15 10:47:55;;;;;;;7.22;2.60;;;;;;;22.73;45.72;101465.94;4953117;28;20074;-58
2022/01/15 10:50:32;;;;;;;4.32;2.95;;;;;;;22.74;45.71;101462.25;4951763;28;20039;-58
2022/01/15 10:53:04;;;;;;;8.93;2.72;;;;;;;22.76;45.77;101466.44;4951796;28;20440;-63
2022/01/15 10:55:31;;;;;;;5.38;3.35;;;;;;;22.73;45.88;101458.75;4953248;28;20162;-59
2022/01/15 10:57:58;;;;;;;6.90;3.30;;;;;;;22.60;45.91;101462.84;4953739;28;20035;-58
2022/01/15 11:00:24;;;;;;;6.28;3.03;;;;;;;22.61;45.89;101461.81;4951164;28;21526;-59
2022/01/15 11:03:01;;;;;;;17.80;3.55;;;;;;;22.75;45.75;101462.09;4958396;28;20059;-61
2022/01/15 11:05:29;;;;;;;4.35;2.50;;;;;;;22.58;45.89;101461.16;4935418;29;20046;-59
2022/01/15 11:08:28;;;;;;;5.38;3.10;;;;;;;22.70;45.50;101461.72;4951697;28;20023;-61
2022/01/15 11:11:04;;;;;;;12.55;3.75;;;;;;;22.82;45.73;101458.78;4949968;28;21759;-62
2022/01/15 11:13:31;;;;;;;6.82;3.90;;;;;;;22.76;45.99;101460.25;4958952;28;20027;-61
2022/01/15 11:16:04;;;;;;;8.48;3.40;;;;;;;22.81;46.09;101449.91;4960072;28;20035;-59
2022/01/15 11:18:34;;;;;;;9.10;3.88;;;;;;;22.69;45.69;101449.34;4952561;28;20093;-59
2022/01/15 11:21:03;;;;;;;11.68;3.80;;;;;;;22.51;46.11;101454.75;4958686;28;20033;-58
2022/01/15 11:23:30;;;;;;;8.75;3.67;;;;;;;22.48;46.08;101447.03;4958919;28;20301;-59
2022/01/15 11:25:59;;;;;;;11.20;4.38;;;;;;;22.47;45.98;101456.06;4955082;28;20023;-60
2022/01/15 11:28:26;;;;;;;8.95;3.92;;;;;;;22.46;45.70;101450.88;4953359;28;20035;-67
2022/01/15 11:30:57;;;;;;;8.35;3.95;;;;;;;22.33;46.15;101451.25;4952643;28;20474;-59
2022/01/15 11:33:34;;;;;;;10.82;4.43;;;;;;;22.35;46.19;101446.59;4953586;28;20043;-59
2022/01/15 11:36:01;;;;;;;10.23;4.03;;;;;;;22.36;46.04;101437.59;4954606;28;20031;-59
2022/01/15 11:38:44;;;;;;;8.35;3.67;;;;;;;22.30;46.18;101449.75;4948016;29;20035;-58
2022/01/15 11:41:28;;;;;;;13.40;3.72;;;;;;;22.38;46.16;101452.47;4964151;28;20089;-58
2022/01/15 11:43:53;;;;;;;8.88;3.78;;;;;;;22.43;46.04;101441.28;4960831;28;20103;-56
2022/01/15 11:46:43;;;;;;;7.78;3.38;;;;;;;22.47;46.07;101445.38;4962148;28;20043;-58